sensor_id;sensor_type;location;lat;lon;timestamp;P1;durP1;ratioP1;P2;durP2;ratioP2
60233;SDS011;49514;43.538;-5.708;2022-08-19T00:01:44;9.65;;;4.90;;
60233;SDS011;49514;43.538;-5.708;2022-08-19T00:04:13;18.90;;;5.28;;
60233;SDS011;49514;43.538;-5.708;2022-08-19T00:06:42;16.30;;;6.13;;
60233;SDS011;49514;43.538;-5.708;2022-08-19T00:09:11;21.95;;;5.57;;
60233;SDS011;49514;43.538;-5.708;2022-08-19T00:11:40;22.10;;;6.55;;
60233;SDS011;49514;43.538;-5.708;2022-08-19T00:14:10;17.23;;;6.20;;
60233;SDS011;49514;43.538;-5.708;2022-08-19T00:16:39;20.20;;;6.13;;
60233;SDS011;49514;43.538;-5.708;2022-08-19T00:19:08;22.25;;;6.15;;
60233;SDS011;49514;43.538;-5.708;2022-08-19T00:21:35;21.13;;;6.60;;
60233;SDS011;49514;43.538;-5.708;2022-08-19T00:24:06;14.63;;;5.83;;
60233;SDS011;49514;43.538;-5.708;2022-08-19T00:26:37;15.57;;;6.45;;
60233;SDS011;49514;43.538;-5.708;2022-08-19T00:29:05;13.70;;;5.28;;
60233;SDS011;49514;43.538;-5.708;2022-08-19T00:31:33;12.98;;;5.80;;
60233;SDS011;49514;43.538;-5.708;2022-08-19T00:34:00;15.27;;;6.40;;
60233;SDS011;49514;43.538;-5.708;2022-08-19T00:36:27;14.82;;;6.30;;
60233;SDS011;49514;43.538;-5.708;2022-08-19T00:38:55;27.92;;;8.10;;
60233;SDS011;49514;43.538;-5.708;2022-08-19T00:41:23;37.38;;;9.52;;
60233;SDS011;49514;43.538;-5.708;2022-08-19T00:44:05;30.52;;;10.82;;
60233;SDS011;49514;43.538;-5.708;2022-08-19T00:46:37;30.92;;;10.05;;
60233;SDS011;49514;43.538;-5.708;2022-08-19T00:49:27;29.42;;;10.75;;
60233;SDS011;49514;43.538;-5.708;2022-08-19T00:52:04;27.48;;;9.45;;
60233;SDS011;49514;43.538;-5.708;2022-08-19T00:54:38;31.73;;;8.82;;
60233;SDS011;49514;43.538;-5.708;2022-08-19T00:57:07;35.58;;;8.98;;
60233;SDS011;49514;43.538;-5.708;2022-08-19T00:59:38;43.80;;;13.82;;
60233;SDS011;49514;43.538;-5.708;2022-08-19T01:02:08;31.65;;;10.13;;
60233;SDS011;49514;43.538;-5.708;2022-08-19T01:04:34;25.60;;;10.27;;
60233;SDS011;49514;43.538;-5.708;2022-08-19T01:07:01;20.13;;;9.25;;
60233;SDS011;49514;43.538;-5.708;2022-08-19T01:09:28;17.67;;;7.63;;
60233;SDS011;49514;43.538;-5.708;2022-08-19T01:11:55;17.40;;;7.10;;
60233;SDS011;49514;43.538;-5.708;2022-08-19T01:14:22;18.07;;;7.73;;
60233;SDS011;49514;43.538;-5.708;2022-08-19T01:16:49;21.30;;;8.37;;
60233;SDS011;49514;43.538;-5.708;2022-08-19T01:19:26;19.92;;;7.53;;
60233;SDS011;49514;43.538;-5.708;2022-08-19T01:21:57;19.25;;;8.85;;
60233;SDS011;49514;43.538;-5.708;2022-08-19T01:24:31;21.40;;;8.43;;
60233;SDS011;49514;43.538;-5.708;2022-08-19T01:26:58;20.55;;;8.00;;
60233;SDS011;49514;43.538;-5.708;2022-08-19T01:29:25;30.33;;;8.63;;
60233;SDS011;49514;43.538;-5.708;2022-08-19T01:31:51;24.83;;;7.78;;
60233;SDS011;49514;43.538;-5.708;2022-08-19T01:34:19;29.40;;;8.70;;
60233;SDS011;49514;43.538;-5.708;2022-08-19T01:36:46;27.08;;;8.15;;
60233;SDS011;49514;43.538;-5.708;2022-08-19T01:39:16;30.90;;;9.33;;
60233;SDS011;49514;43.538;-5.708;2022-08-19T01:41:46;24.83;;;8.55;;
60233;SDS011;49514;43.538;-5.708;2022-08-19T01:44:14;25.42;;;7.72;;
60233;SDS011;49514;43.538;-5.708;2022-08-19T01:46:41;24.77;;;8.02;;
60233;SDS011;49514;43.538;-5.708;2022-08-19T01:49:09;22.40;;;7.57;;
60233;SDS011;49514;43.538;-5.708;2022-08-19T01:51:37;14.35;;;7.30;;
60233;SDS011;49514;43.538;-5.708;2022-08-19T01:54:04;13.63;;;6.80;;
60233;SDS011;49514;43.538;-5.708;2022-08-19T01:56:31;12.40;;;6.68;;
60233;SDS011;49514;43.538;-5.708;2022-08-19T01:59:03;12.35;;;6.18;;
60233;SDS011;49514;43.538;-5.708;2022-08-19T02:01:36;13.97;;;6.87;;
60233;SDS011;49514;43.538;-5.708;2022-08-19T02:04:02;13.90;;;6.78;;
60233;SDS011;49514;43.538;-5.708;2022-08-19T02:06:31;12.00;;;6.40;;
60233;SDS011;49514;43.538;-5.708;2022-08-19T02:08:58;11.55;;;6.18;;
60233;SDS011;49514;43.538;-5.708;2022-08-19T02:11:30;11.27;;;6.10;;
60233;SDS011;49514;43.538;-5.708;2022-08-19T02:14:00;13.50;;;6.50;;
60233;SDS011;49514;43.538;-5.708;2022-08-19T02:16:28;13.90;;;6.83;;
60233;SDS011;49514;43.538;-5.708;2022-08-19T02:18:56;15.65;;;7.35;;
60233;SDS011;49514;43.538;-5.708;2022-08-19T02:21:26;14.13;;;6.63;;
60233;SDS011;49514;43.538;-5.708;2022-08-19T02:23:54;13.57;;;6.68;;
60233;SDS011;49514;43.538;-5.708;2022-08-19T02:26:21;12.80;;;7.27;;
60233;SDS011;49514;43.538;-5.708;2022-08-19T02:28:48;10.20;;;6.30;;
60233;SDS011;49514;43.538;-5.708;2022-08-19T02:31:16;12.95;;;6.78;;
60233;SDS011;49514;43.538;-5.708;2022-08-19T02:33:45;15.15;;;6.85;;
60233;SDS011;49514;43.538;-5.708;2022-08-19T02:36:13;15.50;;;7.10;;
60233;SDS011;49514;43.538;-5.708;2022-08-19T02:38:41;12.80;;;6.73;;
60233;SDS011;49514;43.538;-5.708;2022-08-19T02:41:20;11.35;;;6.40;;
60233;SDS011;49514;43.538;-5.708;2022-08-19T02:43:55;13.05;;;6.80;;
60233;SDS011;49514;43.538;-5.708;2022-08-19T02:46:25;13.88;;;6.93;;
60233;SDS011;49514;43.538;-5.708;2022-08-19T02:48:58;16.20;;;7.97;;
60233;SDS011;49514;43.538;-5.708;2022-08-19T02:51:29;14.95;;;7.57;;
60233;SDS011;49514;43.538;-5.708;2022-08-19T02:54:01;15.18;;;7.57;;
60233;SDS011;49514;43.538;-5.708;2022-08-19T02:56:29;17.92;;;7.70;;
60233;SDS011;49514;43.538;-5.708;2022-08-19T02:58:57;16.70;;;7.65;;
60233;SDS011;49514;43.538;-5.708;2022-08-19T03:01:26;16.92;;;8.02;;
60233;SDS011;49514;43.538;-5.708;2022-08-19T03:03:55;20.40;;;8.43;;
60233;SDS011;49514;43.538;-5.708;2022-08-19T03:06:24;15.87;;;8.23;;
60233;SDS011;49514;43.538;-5.708;2022-08-19T03:08:50;17.02;;;8.35;;
60233;SDS011;49514;43.538;-5.708;2022-08-19T03:11:19;21.92;;;9.82;;
60233;SDS011;49514;43.538;-5.708;2022-08-19T03:13:50;23.67;;;10.88;;
60233;SDS011;49514;43.538;-5.708;2022-08-19T03:16:19;18.90;;;10.43;;
60233;SDS011;49514;43.538;-5.708;2022-08-19T03:18:47;24.17;;;10.55;;
60233;SDS011;49514;43.538;-5.708;2022-08-19T03:21:18;23.20;;;10.10;;
60233;SDS011;49514;43.538;-5.708;2022-08-19T03:23:56;20.70;;;9.95;;
60233;SDS011;49514;43.538;-5.708;2022-08-19T03:26:24;15.98;;;8.80;;
60233;SDS011;49514;43.538;-5.708;2022-08-19T03:28:51;17.45;;;8.30;;
60233;SDS011;49514;43.538;-5.708;2022-08-19T03:31:19;17.38;;;8.23;;
60233;SDS011;49514;43.538;-5.708;2022-08-19T03:33:50;14.00;;;8.02;;
60233;SDS011;49514;43.538;-5.708;2022-08-19T03:36:21;18.70;;;8.67;;
60233;SDS011;49514;43.538;-5.708;2022-08-19T03:38:51;17.20;;;7.95;;
60233;SDS011;49514;43.538;-5.708;2022-08-19T03:41:21;16.75;;;7.93;;
60233;SDS011;49514;43.538;-5.708;2022-08-19T03:43:51;20.52;;;8.02;;
60233;SDS011;49514;43.538;-5.708;2022-08-19T03:46:20;16.70;;;7.53;;
60233;SDS011;49514;43.538;-5.708;2022-08-19T03:48:53;17.33;;;8.32;;
60233;SDS011;49514;43.538;-5.708;2022-08-19T03:51:29;14.57;;;7.70;;
60233;SDS011;49514;43.538;-5.708;2022-08-19T03:53:59;19.90;;;9.05;;
60233;SDS011;49514;43.538;-5.708;2022-08-19T03:56:28;14.60;;;7.30;;
60233;SDS011;49514;43.538;-5.708;2022-08-19T03:58:56;19.38;;;8.48;;
60233;SDS011;49514;43.538;-5.708;2022-08-19T04:01:25;18.92;;;8.77;;
60233;SDS011;49514;43.538;-5.708;2022-08-19T04:03:54;19.05;;;8.93;;
60233;SDS011;49514;43.538;-5.708;2022-08-19T04:06:23;14.93;;;7.70;;
60233;SDS011;49514;43.538;-5.708;2022-08-19T04:08:52;20.17;;;9.00;;
60233;SDS011;49514;43.538;-5.708;2022-08-19T04:11:22;22.83;;;9.70;;
60233;SDS011;49514;43.538;-5.708;2022-08-19T04:13:52;23.67;;;10.70;;
60233;SDS011;49514;43.538;-5.708;2022-08-19T04:16:23;27.50;;;10.00;;
60233;SDS011;49514;43.538;-5.708;2022-08-19T04:18:54;17.10;;;8.43;;
60233;SDS011;49514;43.538;-5.708;2022-08-19T04:21:23;18.05;;;8.65;;
60233;SDS011;49514;43.538;-5.708;2022-08-19T04:23:51;22.38;;;10.50;;
60233;SDS011;49514;43.538;-5.708;2022-08-19T04:26:23;31.33;;;12.05;;
60233;SDS011;49514;43.538;-5.708;2022-08-19T04:28:52;22.77;;;10.55;;
60233;SDS011;49514;43.538;-5.708;2022-08-19T04:31:24;32.53;;;12.50;;
60233;SDS011;49514;43.538;-5.708;2022-08-19T04:33:53;30.63;;;12.38;;
60233;SDS011;49514;43.538;-5.708;2022-08-19T04:36:29;30.33;;;12.13;;
60233;SDS011;49514;43.538;-5.708;2022-08-19T04:38:59;28.08;;;10.82;;
60233;SDS011;49514;43.538;-5.708;2022-08-19T04:41:32;31.20;;;11.53;;
60233;SDS011;49514;43.538;-5.708;2022-08-19T04:44:18;32.15;;;11.85;;
60233;SDS011;49514;43.538;-5.708;2022-08-19T04:46:46;36.13;;;12.63;;
60233;SDS011;49514;43.538;-5.708;2022-08-19T04:49:14;34.92;;;13.18;;
60233;SDS011;49514;43.538;-5.708;2022-08-19T04:51:44;34.15;;;13.10;;
60233;SDS011;49514;43.538;-5.708;2022-08-19T04:54:13;33.17;;;12.88;;
60233;SDS011;49514;43.538;-5.708;2022-08-19T04:56:41;31.43;;;13.13;;
60233;SDS011;49514;43.538;-5.708;2022-08-19T04:59:07;25.80;;;12.45;;
60233;SDS011;49514;43.538;-5.708;2022-08-19T05:01:34;31.88;;;12.07;;
60233;SDS011;49514;43.538;-5.708;2022-08-19T05:04:03;32.08;;;11.45;;
60233;SDS011;49514;43.538;-5.708;2022-08-19T05:06:31;29.35;;;11.18;;
60233;SDS011;49514;43.538;-5.708;2022-08-19T05:09:00;27.15;;;10.23;;
60233;SDS011;49514;43.538;-5.708;2022-08-19T05:11:34;35.17;;;12.45;;
60233;SDS011;49514;43.538;-5.708;2022-08-19T05:14:04;25.00;;;9.82;;
60233;SDS011;49514;43.538;-5.708;2022-08-19T05:16:32;23.02;;;10.50;;
60233;SDS011;49514;43.538;-5.708;2022-08-19T05:18:59;24.40;;;10.80;;
60233;SDS011;49514;43.538;-5.708;2022-08-19T05:21:44;20.50;;;9.10;;
60233;SDS011;49514;43.538;-5.708;2022-08-19T05:24:30;21.02;;;9.85;;
60233;SDS011;49514;43.538;-5.708;2022-08-19T05:27:00;20.77;;;9.43;;
60233;SDS011;49514;43.538;-5.708;2022-08-19T05:29:28;24.45;;;9.52;;
60233;SDS011;49514;43.538;-5.708;2022-08-19T05:31:57;28.88;;;10.00;;
60233;SDS011;49514;43.538;-5.708;2022-08-19T05:34:25;23.90;;;10.18;;
60233;SDS011;49514;43.538;-5.708;2022-08-19T05:36:54;33.28;;;11.45;;
60233;SDS011;49514;43.538;-5.708;2022-08-19T05:39:23;26.67;;;10.63;;
60233;SDS011;49514;43.538;-5.708;2022-08-19T05:41:54;23.70;;;10.50;;
60233;SDS011;49514;43.538;-5.708;2022-08-19T05:44:26;31.95;;;11.40;;
60233;SDS011;49514;43.538;-5.708;2022-08-19T05:47:00;31.73;;;12.10;;
60233;SDS011;49514;43.538;-5.708;2022-08-19T05:49:28;28.47;;;11.00;;
60233;SDS011;49514;43.538;-5.708;2022-08-19T05:51:56;30.13;;;12.00;;
60233;SDS011;49514;43.538;-5.708;2022-08-19T05:54:23;28.40;;;10.90;;
60233;SDS011;49514;43.538;-5.708;2022-08-19T05:56:50;27.93;;;10.80;;
60233;SDS011;49514;43.538;-5.708;2022-08-19T05:59:18;30.75;;;10.23;;
60233;SDS011;49514;43.538;-5.708;2022-08-19T06:01:47;37.40;;;10.37;;
60233;SDS011;49514;43.538;-5.708;2022-08-19T06:04:17;45.72;;;8.90;;
60233;SDS011;49514;43.538;-5.708;2022-08-19T06:06:46;28.77;;;9.75;;
60233;SDS011;49514;43.538;-5.708;2022-08-19T06:09:14;40.38;;;11.25;;
60233;SDS011;49514;43.538;-5.708;2022-08-19T06:11:43;43.15;;;11.52;;
60233;SDS011;49514;43.538;-5.708;2022-08-19T06:14:13;41.63;;;11.45;;
60233;SDS011;49514;43.538;-5.708;2022-08-19T06:16:44;36.95;;;13.07;;
60233;SDS011;49514;43.538;-5.708;2022-08-19T06:19:12;42.80;;;12.52;;
60233;SDS011;49514;43.538;-5.708;2022-08-19T06:21:43;30.00;;;10.70;;
60233;SDS011;49514;43.538;-5.708;2022-08-19T06:24:13;26.20;;;9.57;;
60233;SDS011;49514;43.538;-5.708;2022-08-19T06:26:42;27.37;;;9.27;;
60233;SDS011;49514;43.538;-5.708;2022-08-19T06:29:11;28.77;;;8.65;;
60233;SDS011;49514;43.538;-5.708;2022-08-19T06:31:41;32.30;;;10.70;;
60233;SDS011;49514;43.538;-5.708;2022-08-19T06:34:10;32.22;;;10.20;;
60233;SDS011;49514;43.538;-5.708;2022-08-19T06:36:39;34.85;;;10.38;;
60233;SDS011;49514;43.538;-5.708;2022-08-19T06:39:14;27.20;;;9.40;;
60233;SDS011;49514;43.538;-5.708;2022-08-19T06:41:45;27.63;;;8.95;;
60233;SDS011;49514;43.538;-5.708;2022-08-19T06:44:18;21.13;;;9.07;;
60233;SDS011;49514;43.538;-5.708;2022-08-19T06:46:45;28.02;;;8.20;;
60233;SDS011;49514;43.538;-5.708;2022-08-19T06:49:14;26.00;;;7.32;;
60233;SDS011;49514;43.538;-5.708;2022-08-19T10:39:48;10.15;;;4.68;;
60233;SDS011;49514;43.538;-5.708;2022-08-19T10:42:14;8.70;;;4.85;;
60233;SDS011;49514;43.538;-5.708;2022-08-19T10:44:42;10.35;;;4.88;;
60233;SDS011;49514;43.538;-5.708;2022-08-19T10:47:10;11.18;;;4.65;;
60233;SDS011;49514;43.538;-5.708;2022-08-19T10:49:37;13.98;;;6.05;;
60233;SDS011;49514;43.538;-5.708;2022-08-19T10:52:24;9.73;;;5.10;;
60233;SDS011;49514;43.538;-5.708;2022-08-19T10:55:00;8.43;;;4.82;;
60233;SDS011;49514;43.538;-5.708;2022-08-19T10:57:46;10.57;;;4.70;;
60233;SDS011;49514;43.538;-5.708;2022-08-19T11:00:14;12.25;;;4.93;;
60233;SDS011;49514;43.538;-5.708;2022-08-19T11:02:40;13.45;;;5.60;;
60233;SDS011;49514;43.538;-5.708;2022-08-19T11:05:08;10.70;;;4.72;;
60233;SDS011;49514;43.538;-5.708;2022-08-19T11:07:39;9.20;;;4.25;;
60233;SDS011;49514;43.538;-5.708;2022-08-19T11:10:06;10.85;;;5.35;;
60233;SDS011;49514;43.538;-5.708;2022-08-19T11:12:38;10.50;;;4.72;;
60233;SDS011;49514;43.538;-5.708;2022-08-19T11:15:07;13.07;;;5.38;;
60233;SDS011;49514;43.538;-5.708;2022-08-19T11:17:39;12.50;;;4.82;;
60233;SDS011;49514;43.538;-5.708;2022-08-19T11:20:07;11.00;;;4.80;;
60233;SDS011;49514;43.538;-5.708;2022-08-19T11:22:35;9.82;;;5.15;;
60233;SDS011;49514;43.538;-5.708;2022-08-19T11:25:02;7.60;;;4.75;;
60233;SDS011;49514;43.538;-5.708;2022-08-19T11:27:29;9.05;;;5.85;;
60233;SDS011;49514;43.538;-5.708;2022-08-19T11:29:56;7.72;;;4.85;;
60233;SDS011;49514;43.538;-5.708;2022-08-19T11:32:22;12.77;;;5.40;;
60233;SDS011;49514;43.538;-5.708;2022-08-19T11:34:49;10.43;;;5.32;;
60233;SDS011;49514;43.538;-5.708;2022-08-19T11:37:16;11.02;;;5.05;;
60233;SDS011;49514;43.538;-5.708;2022-08-19T11:39:42;7.95;;;4.47;;
60233;SDS011;49514;43.538;-5.708;2022-08-19T11:42:09;8.73;;;3.53;;
60233;SDS011;49514;43.538;-5.708;2022-08-19T11:44:55;7.82;;;4.13;;
60233;SDS011;49514;43.538;-5.708;2022-08-19T11:47:21;11.10;;;4.20;;
60233;SDS011;49514;43.538;-5.708;2022-08-19T11:49:49;6.30;;;3.50;;
60233;SDS011;49514;43.538;-5.708;2022-08-19T11:52:16;8.02;;;4.00;;
60233;SDS011;49514;43.538;-5.708;2022-08-19T11:54:42;9.52;;;4.32;;
60233;SDS011;49514;43.538;-5.708;2022-08-19T11:57:09;9.55;;;4.40;;
60233;SDS011;49514;43.538;-5.708;2022-08-19T11:59:36;9.73;;;3.88;;
60233;SDS011;49514;43.538;-5.708;2022-08-19T12:02:02;7.45;;;3.10;;
60233;SDS011;49514;43.538;-5.708;2022-08-19T12:04:29;8.48;;;4.07;;
60233;SDS011;49514;43.538;-5.708;2022-08-19T12:06:56;7.03;;;3.67;;
60233;SDS011;49514;43.538;-5.708;2022-08-19T12:09:23;13.75;;;3.70;;
60233;SDS011;49514;43.538;-5.708;2022-08-19T12:11:49;6.15;;;3.30;;
60233;SDS011;49514;43.538;-5.708;2022-08-19T12:14:16;8.23;;;3.88;;
60233;SDS011;49514;43.538;-5.708;2022-08-19T12:16:45;7.78;;;3.45;;
60233;SDS011;49514;43.538;-5.708;2022-08-19T12:19:12;7.40;;;3.40;;
60233;SDS011;49514;43.538;-5.708;2022-08-19T12:21:39;7.95;;;3.75;;
60233;SDS011;49514;43.538;-5.708;2022-08-19T12:24:06;11.38;;;3.97;;
60233;SDS011;49514;43.538;-5.708;2022-08-19T12:26:33;6.30;;;3.50;;
60233;SDS011;49514;43.538;-5.708;2022-08-19T12:29:00;5.05;;;3.38;;
60233;SDS011;49514;43.538;-5.708;2022-08-19T12:31:27;8.65;;;3.63;;
60233;SDS011;49514;43.538;-5.708;2022-08-19T12:33:55;8.70;;;3.85;;
60233;SDS011;49514;43.538;-5.708;2022-08-19T12:36:22;7.05;;;3.30;;
60233;SDS011;49514;43.538;-5.708;2022-08-19T12:38:51;7.95;;;3.40;;
60233;SDS011;49514;43.538;-5.708;2022-08-19T12:41:18;6.45;;;3.50;;
60233;SDS011;49514;43.538;-5.708;2022-08-19T12:43:48;6.68;;;3.60;;
60233;SDS011;49514;43.538;-5.708;2022-08-19T12:46:15;5.00;;;3.40;;
60233;SDS011;49514;43.538;-5.708;2022-08-19T12:48:42;7.97;;;3.33;;
60233;SDS011;49514;43.538;-5.708;2022-08-19T12:51:15;5.63;;;3.15;;
60233;SDS011;49514;43.538;-5.708;2022-08-19T12:53:43;8.20;;;3.40;;
60233;SDS011;49514;43.538;-5.708;2022-08-19T12:56:11;4.40;;;2.92;;
60233;SDS011;49514;43.538;-5.708;2022-08-19T12:58:40;4.63;;;2.63;;
60233;SDS011;49514;43.538;-5.708;2022-08-19T13:01:11;7.75;;;2.67;;
60233;SDS011;49514;43.538;-5.708;2022-08-19T13:03:39;4.25;;;2.42;;
60233;SDS011;49514;43.538;-5.708;2022-08-19T13:06:06;5.80;;;2.40;;
60233;SDS011;49514;43.538;-5.708;2022-08-19T13:08:33;4.13;;;2.40;;
60233;SDS011;49514;43.538;-5.708;2022-08-19T13:11:14;3.25;;;2.10;;
60233;SDS011;49514;43.538;-5.708;2022-08-19T13:13:42;7.45;;;2.78;;
60233;SDS011;49514;43.538;-5.708;2022-08-19T13:16:10;7.63;;;2.40;;
60233;SDS011;49514;43.538;-5.708;2022-08-19T13:18:38;5.95;;;2.58;;
60233;SDS011;49514;43.538;-5.708;2022-08-19T13:21:08;5.82;;;2.00;;
60233;SDS011;49514;43.538;-5.708;2022-08-19T13:23:37;6.03;;;2.20;;
60233;SDS011;49514;43.538;-5.708;2022-08-19T13:26:05;3.97;;;2.00;;
60233;SDS011;49514;43.538;-5.708;2022-08-19T13:28:32;4.03;;;2.08;;
60233;SDS011;49514;43.538;-5.708;2022-08-19T13:31:19;5.93;;;2.17;;
60233;SDS011;49514;43.538;-5.708;2022-08-19T13:34:05;7.50;;;2.03;;
60233;SDS011;49514;43.538;-5.708;2022-08-19T13:36:35;4.10;;;2.00;;
60233;SDS011;49514;43.538;-5.708;2022-08-19T13:39:02;3.78;;;2.00;;
60233;SDS011;49514;43.538;-5.708;2022-08-19T13:41:29;4.40;;;1.83;;
60233;SDS011;49514;43.538;-5.708;2022-08-19T13:43:57;5.78;;;2.10;;
60233;SDS011;49514;43.538;-5.708;2022-08-19T13:46:23;4.07;;;1.83;;
60233;SDS011;49514;43.538;-5.708;2022-08-19T13:48:53;6.03;;;1.83;;
60233;SDS011;49514;43.538;-5.708;2022-08-19T13:51:19;4.55;;;2.10;;
60233;SDS011;49514;43.538;-5.708;2022-08-19T13:53:46;4.47;;;1.80;;
60233;SDS011;49514;43.538;-5.708;2022-08-19T13:56:15;7.38;;;1.95;;
60233;SDS011;49514;43.538;-5.708;2022-08-19T13:58:45;3.28;;;1.63;;
60233;SDS011;49514;43.538;-5.708;2022-08-19T14:01:12;4.28;;;1.73;;
60233;SDS011;49514;43.538;-5.708;2022-08-19T14:03:44;3.47;;;1.60;;
60233;SDS011;49514;43.538;-5.708;2022-08-19T14:06:11;3.50;;;1.45;;
60233;SDS011;49514;43.538;-5.708;2022-08-19T14:08:37;6.00;;;2.00;;
60233;SDS011;49514;43.538;-5.708;2022-08-19T14:11:07;6.80;;;1.75;;
60233;SDS011;49514;43.538;-5.708;2022-08-19T14:13:35;7.53;;;1.83;;
60233;SDS011;49514;43.538;-5.708;2022-08-19T14:16:05;3.47;;;1.77;;
60233;SDS011;49514;43.538;-5.708;2022-08-19T14:18:36;2.55;;;1.40;;
60233;SDS011;49514;43.538;-5.708;2022-08-19T14:21:03;5.32;;;1.70;;
60233;SDS011;49514;43.538;-5.708;2022-08-19T14:23:30;4.72;;;1.70;;
60233;SDS011;49514;43.538;-5.708;2022-08-19T14:26:08;6.10;;;1.80;;
60233;SDS011;49514;43.538;-5.708;2022-08-19T14:28:37;4.57;;;1.80;;
60233;SDS011;49514;43.538;-5.708;2022-08-19T14:31:06;3.72;;;1.65;;
60233;SDS011;49514;43.538;-5.708;2022-08-19T14:33:34;3.58;;;1.48;;
60233;SDS011;49514;43.538;-5.708;2022-08-19T14:36:01;6.38;;;1.90;;
60233;SDS011;49514;43.538;-5.708;2022-08-19T14:38:28;2.80;;;1.30;;
60233;SDS011;49514;43.538;-5.708;2022-08-19T14:41:14;4.05;;;1.52;;
60233;SDS011;49514;43.538;-5.708;2022-08-19T14:43:43;3.60;;;1.40;;
60233;SDS011;49514;43.538;-5.708;2022-08-19T14:46:16;3.90;;;1.65;;
60233;SDS011;49514;43.538;-5.708;2022-08-19T14:48:46;2.95;;;1.30;;
60233;SDS011;49514;43.538;-5.708;2022-08-19T14:51:14;3.72;;;1.52;;
60233;SDS011;49514;43.538;-5.708;2022-08-19T14:53:41;3.92;;;1.48;;
60233;SDS011;49514;43.538;-5.708;2022-08-19T14:56:13;3.95;;;1.48;;
60233;SDS011;49514;43.538;-5.708;2022-08-19T14:58:44;6.68;;;1.73;;
60233;SDS011;49514;43.538;-5.708;2022-08-19T15:01:11;3.40;;;1.38;;
60233;SDS011;49514;43.538;-5.708;2022-08-19T15:03:39;3.97;;;1.52;;
60233;SDS011;49514;43.538;-5.708;2022-08-19T15:06:07;6.57;;;1.50;;
60233;SDS011;49514;43.538;-5.708;2022-08-19T15:08:35;2.47;;;1.30;;
60233;SDS011;49514;43.538;-5.708;2022-08-19T15:11:12;5.18;;;1.55;;
60233;SDS011;49514;43.538;-5.708;2022-08-19T15:13:42;3.30;;;1.40;;
60233;SDS011;49514;43.538;-5.708;2022-08-19T15:16:10;2.80;;;1.38;;
60233;SDS011;49514;43.538;-5.708;2022-08-19T15:18:37;5.25;;;1.70;;
60233;SDS011;49514;43.538;-5.708;2022-08-19T15:21:04;2.78;;;1.35;;
60233;SDS011;49514;43.538;-5.708;2022-08-19T15:23:31;4.10;;;1.40;;
60233;SDS011;49514;43.538;-5.708;2022-08-19T15:25:57;2.40;;;1.50;;
60233;SDS011;49514;43.538;-5.708;2022-08-19T15:28:24;4.72;;;1.30;;
60233;SDS011;49514;43.538;-5.708;2022-08-19T15:33:18;4.53;;;1.27;;
60233;SDS011;49514;43.538;-5.708;2022-08-19T15:35:46;2.28;;;1.20;;
60233;SDS011;49514;43.538;-5.708;2022-08-19T15:38:16;3.20;;;1.30;;
60233;SDS011;49514;43.538;-5.708;2022-08-19T15:40:47;1.97;;;1.20;;
60233;SDS011;49514;43.538;-5.708;2022-08-19T15:43:15;3.33;;;1.48;;
60233;SDS011;49514;43.538;-5.708;2022-08-19T15:48:10;3.00;;;1.35;;
60233;SDS011;49514;43.538;-5.708;2022-08-19T15:50:37;5.93;;;1.50;;
60233;SDS011;49514;43.538;-5.708;2022-08-19T15:53:06;4.10;;;1.52;;
60233;SDS011;49514;43.538;-5.708;2022-08-19T15:55:35;3.38;;;1.27;;
60233;SDS011;49514;43.538;-5.708;2022-08-19T15:58:04;3.28;;;1.50;;
60233;SDS011;49514;43.538;-5.708;2022-08-19T16:00:56;3.03;;;1.48;;
60233;SDS011;49514;43.538;-5.708;2022-08-19T16:03:44;3.13;;;1.40;;
60233;SDS011;49514;43.538;-5.708;2022-08-19T16:09:00;2.20;;;1.20;;
60233;SDS011;49514;43.538;-5.708;2022-08-19T16:11:30;3.00;;;1.02;;
60233;SDS011;49514;43.538;-5.708;2022-08-19T16:14:01;3.83;;;1.30;;
60233;SDS011;49514;43.538;-5.708;2022-08-19T16:16:32;2.80;;;1.30;;
60233;SDS011;49514;43.538;-5.708;2022-08-19T16:21:31;3.47;;;1.40;;
60233;SDS011;49514;43.538;-5.708;2022-08-19T16:24:00;2.40;;;1.10;;
60233;SDS011;49514;43.538;-5.708;2022-08-19T16:26:29;2.53;;;1.10;;
60233;SDS011;49514;43.538;-5.708;2022-08-19T16:28:57;3.10;;;1.48;;
60233;SDS011;49514;43.538;-5.708;2022-08-19T16:31:24;2.45;;;1.33;;
60233;SDS011;49514;43.538;-5.708;2022-08-19T16:33:52;3.40;;;1.40;;
60233;SDS011;49514;43.538;-5.708;2022-08-19T16:36:20;1.88;;;1.05;;
60233;SDS011;49514;43.538;-5.708;2022-08-19T16:38:49;3.78;;;1.20;;
60233;SDS011;49514;43.538;-5.708;2022-08-19T16:41:17;3.63;;;1.45;;
60233;SDS011;49514;43.538;-5.708;2022-08-19T16:43:44;2.38;;;1.10;;
60233;SDS011;49514;43.538;-5.708;2022-08-19T16:46:11;2.80;;;1.20;;
60233;SDS011;49514;43.538;-5.708;2022-08-19T16:48:38;2.70;;;1.10;;
60233;SDS011;49514;43.538;-5.708;2022-08-19T16:51:08;2.17;;;1.20;;
60233;SDS011;49514;43.538;-5.708;2022-08-19T16:53:37;3.75;;;1.40;;
60233;SDS011;49514;43.538;-5.708;2022-08-19T16:56:06;3.08;;;1.20;;
60233;SDS011;49514;43.538;-5.708;2022-08-19T16:58:34;4.63;;;1.33;;
60233;SDS011;49514;43.538;-5.708;2022-08-19T17:01:02;6.43;;;1.40;;
60233;SDS011;49514;43.538;-5.708;2022-08-19T17:03:31;2.63;;;1.20;;
60233;SDS011;49514;43.538;-5.708;2022-08-19T17:05:59;2.03;;;1.30;;
60233;SDS011;49514;43.538;-5.708;2022-08-19T17:08:30;2.55;;;1.35;;
60233;SDS011;49514;43.538;-5.708;2022-08-19T17:18:20;4.10;;;1.20;;
60233;SDS011;49514;43.538;-5.708;2022-08-19T17:20:48;3.35;;;1.35;;
60233;SDS011;49514;43.538;-5.708;2022-08-19T17:23:17;2.67;;;1.17;;
60233;SDS011;49514;43.538;-5.708;2022-08-19T17:25:49;3.33;;;1.40;;
60233;SDS011;49514;43.538;-5.708;2022-08-19T17:28:26;2.92;;;1.30;;
60233;SDS011;49514;43.538;-5.708;2022-08-19T17:30:53;2.20;;;1.02;;
60233;SDS011;49514;43.538;-5.708;2022-08-19T17:40:43;1.80;;;1.02;;
60233;SDS011;49514;43.538;-5.708;2022-08-19T17:43:12;3.92;;;1.30;;
60233;SDS011;49514;43.538;-5.708;2022-08-19T17:45:40;2.67;;;1.10;;
60233;SDS011;49514;43.538;-5.708;2022-08-19T17:48:08;1.70;;;1.02;;
60233;SDS011;49514;43.538;-5.708;2022-08-19T17:50:35;1.80;;;1.00;;
60233;SDS011;49514;43.538;-5.708;2022-08-19T17:53:03;2.45;;;1.10;;
60233;SDS011;49514;43.538;-5.708;2022-08-19T17:55:31;3.47;;;1.00;;
60233;SDS011;49514;43.538;-5.708;2022-08-19T17:57:59;3.30;;;1.20;;
60233;SDS011;49514;43.538;-5.708;2022-08-19T18:12:51;3.10;;;1.00;;
60233;SDS011;49514;43.538;-5.708;2022-08-19T18:15:18;3.40;;;1.10;;
60233;SDS011;49514;43.538;-5.708;2022-08-19T18:17:45;3.22;;;1.25;;
60233;SDS011;49514;43.538;-5.708;2022-08-19T18:20:13;3.35;;;1.08;;
60233;SDS011;49514;43.538;-5.708;2022-08-19T18:22:42;3.33;;;1.20;;
60233;SDS011;49514;43.538;-5.708;2022-08-19T18:25:17;3.28;;;1.10;;
60233;SDS011;49514;43.538;-5.708;2022-08-19T18:27:44;2.80;;;1.10;;
60233;SDS011;49514;43.538;-5.708;2022-08-19T18:30:12;6.43;;;1.23;;
60233;SDS011;49514;43.538;-5.708;2022-08-19T18:32:40;3.63;;;1.08;;
60233;SDS011;49514;43.538;-5.708;2022-08-19T18:35:10;3.45;;;1.10;;
60233;SDS011;49514;43.538;-5.708;2022-08-19T18:37:42;3.45;;;1.30;;
60233;SDS011;49514;43.538;-5.708;2022-08-19T18:40:11;4.70;;;1.20;;
60233;SDS011;49514;43.538;-5.708;2022-08-19T18:42:59;3.83;;;1.20;;
60233;SDS011;49514;43.538;-5.708;2022-08-19T18:45:36;2.30;;;1.40;;
60233;SDS011;49514;43.538;-5.708;2022-08-19T18:48:22;5.72;;;1.55;;
60233;SDS011;49514;43.538;-5.708;2022-08-19T18:51:07;3.88;;;1.50;;
60233;SDS011;49514;43.538;-5.708;2022-08-19T18:53:35;3.15;;;1.13;;
60233;SDS011;49514;43.538;-5.708;2022-08-19T18:56:07;3.83;;;1.40;;
60233;SDS011;49514;43.538;-5.708;2022-08-19T18:58:39;3.80;;;1.60;;
60233;SDS011;49514;43.538;-5.708;2022-08-19T19:03:39;4.60;;;1.52;;
60233;SDS011;49514;43.538;-5.708;2022-08-19T19:06:11;3.42;;;1.50;;
60233;SDS011;49514;43.538;-5.708;2022-08-19T19:08:39;1.73;;;1.15;;